createdAt,value
2022-10-06T00:01:09.817Z,1.92
2022-10-06T00:03:38.359Z,2.08
2022-10-06T00:06:06.025Z,2.40
2022-10-06T00:08:34.265Z,2.03
2022-10-06T00:11:01.407Z,2.42
2022-10-06T00:13:29.075Z,2.40
2022-10-06T00:15:56.533Z,2.25
2022-10-06T00:18:23.697Z,2.22
2022-10-06T00:20:58.146Z,1.92
2022-10-06T00:23:25.417Z,2.17
2022-10-06T00:25:52.624Z,1.85
2022-10-06T00:28:19.838Z,1.95
2022-10-06T00:30:47.393Z,2.13
2022-10-06T00:33:16.175Z,2.20
2022-10-06T00:35:43.825Z,1.90
2022-10-06T00:38:12.902Z,2.00
2022-10-06T00:40:47.192Z,2.10
2022-10-06T00:43:33.127Z,2.33
2022-10-06T00:46:00.356Z,1.88
2022-10-06T00:48:28.360Z,2.42
2022-10-06T00:50:57.538Z,2.50
2022-10-06T00:53:27.606Z,2.25
2022-10-06T00:55:54.688Z,2.10
2022-10-06T00:58:22.203Z,2.40
2022-10-06T01:00:54.089Z,2.17
2022-10-06T01:03:27.815Z,2.10
2022-10-06T01:05:56.095Z,2.30
2022-10-06T01:08:23.523Z,2.33
2022-10-06T01:10:50.595Z,1.92
2022-10-06T01:13:18.626Z,2.33
2022-10-06T01:15:51.073Z,2.40
2022-10-06T01:18:18.659Z,2.15
2022-10-06T01:21:04.388Z,2.17
2022-10-06T01:23:32.526Z,2.25
2022-10-06T01:25:59.875Z,1.90
2022-10-06T01:28:27.652Z,2.38
2022-10-06T01:30:55.612Z,2.40
2022-10-06T01:33:22.877Z,2.28
2022-10-06T01:35:51.610Z,1.95
2022-10-06T01:38:20.003Z,1.90
2022-10-06T01:40:47.216Z,1.95
2022-10-06T01:43:14.303Z,2.38
2022-10-06T01:45:41.375Z,2.08
2022-10-06T01:48:09.597Z,1.95
2022-10-06T01:50:36.675Z,1.80
2022-10-06T01:53:03.842Z,2.13
2022-10-06T01:55:30.909Z,1.92
2022-10-06T01:57:58.045Z,2.35
2022-10-06T02:00:25.128Z,2.20
2022-10-06T02:02:52.348Z,2.15
2022-10-06T02:05:19.462Z,1.88
2022-10-06T02:07:46.626Z,1.85
2022-10-06T02:10:13.699Z,2.00
2022-10-06T02:12:40.890Z,2.05
2022-10-06T02:15:10.911Z,2.25
2022-10-06T02:17:38.486Z,2.20
2022-10-06T02:20:06.244Z,2.20
2022-10-06T02:22:33.389Z,2.17
2022-10-06T02:25:00.469Z,2.58
2022-10-06T02:27:27.596Z,1.98
2022-10-06T02:29:55.823Z,2.40
2022-10-06T02:32:23.423Z,1.90
2022-10-06T02:34:50.598Z,2.35
2022-10-06T02:37:17.675Z,2.28
2022-10-06T02:39:44.746Z,1.90
2022-10-06T02:42:12.049Z,2.17
2022-10-06T02:44:39.815Z,2.33
2022-10-06T02:47:06.932Z,2.40
2022-10-06T02:49:33.986Z,2.08
2022-10-06T02:52:01.083Z,2.25
2022-10-06T02:54:28.182Z,2.13
2022-10-06T02:56:55.278Z,2.53
2022-10-06T02:59:22.386Z,2.20
2022-10-06T03:01:50.034Z,2.10
2022-10-06T03:04:17.746Z,3.60
2022-10-06T03:06:44.890Z,3.55
2022-10-06T03:09:12.013Z,3.25
2022-10-06T03:11:40.226Z,2.63
2022-10-06T03:14:07.892Z,3.17
2022-10-06T03:16:37.125Z,2.47
2022-10-06T03:19:04.263Z,2.22
2022-10-06T03:21:36.068Z,2.50
2022-10-06T03:24:03.410Z,2.22
2022-10-06T03:26:34.775Z,2.58
2022-10-06T03:29:02.035Z,2.30
2022-10-06T03:31:30.027Z,2.08
2022-10-06T03:33:57.173Z,2.25
2022-10-06T03:36:25.790Z,2.15
2022-10-06T03:38:53.241Z,2.10
2022-10-06T03:41:21.838Z,2.00
2022-10-06T03:43:49.692Z,2.22
2022-10-06T03:46:19.681Z,2.10
2022-10-06T03:48:47.565Z,2.10
2022-10-06T03:51:16.173Z,2.53
2022-10-06T03:53:47.585Z,1.90
2022-10-06T03:56:14.666Z,2.38
2022-10-06T03:58:43.015Z,2.35
2022-10-06T04:01:13.213Z,2.30
2022-10-06T04:03:40.695Z,2.40
2022-10-06T04:06:08.538Z,2.38
2022-10-06T04:08:35.946Z,2.38
2022-10-06T04:11:29.590Z,2.28
2022-10-06T04:13:59.781Z,2.67
2022-10-06T04:16:28.346Z,2.55
2022-10-06T04:19:02.873Z,2.42
2022-10-06T04:21:31.624Z,2.50
2022-10-06T04:23:59.534Z,2.35
2022-10-06T04:26:28.036Z,2.67
2022-10-06T04:28:55.928Z,2.70
2022-10-06T04:31:24.064Z,3.03
2022-10-06T04:33:56.938Z,2.50
2022-10-06T04:36:28.102Z,2.75
2022-10-06T04:39:05.217Z,2.65
2022-10-06T04:41:33.740Z,2.75
2022-10-06T04:44:01.318Z,3.22
2022-10-06T04:46:45.035Z,2.70
2022-10-06T04:49:19.077Z,3.30
2022-10-06T04:51:48.428Z,3.17
2022-10-06T04:54:15.716Z,3.15
2022-10-06T04:57:05.994Z,3.03
2022-10-06T04:59:52.957Z,3.58
2022-10-06T05:02:20.747Z,3.60
2022-10-06T05:04:48.135Z,3.60
2022-10-06T05:07:15.384Z,3.35
2022-10-06T05:09:42.463Z,3.28
2022-10-06T05:12:10.117Z,3.65
2022-10-06T05:14:37.199Z,3.63
2022-10-06T05:17:04.331Z,3.60
2022-10-06T05:19:31.421Z,3.63
2022-10-06T05:21:58.496Z,3.88
2022-10-06T05:24:25.976Z,3.42
2022-10-06T05:26:54.240Z,3.55
2022-10-06T05:29:23.426Z,3.53
2022-10-06T05:31:50.533Z,3.90
2022-10-06T05:34:17.636Z,3.65
2022-10-06T05:36:44.724Z,3.80
2022-10-06T05:39:11.796Z,4.13
2022-10-06T05:41:39.040Z,3.60
2022-10-06T05:44:06.333Z,3.88
2022-10-06T05:46:34.164Z,4.10
2022-10-06T05:49:03.257Z,3.92
2022-10-06T05:51:31.554Z,4.60
2022-10-06T05:54:01.564Z,3.90
2022-10-06T05:56:29.923Z,3.90
2022-10-06T05:58:57.573Z,3.83
2022-10-06T06:01:24.705Z,3.90
2022-10-06T06:03:53.231Z,4.22
2022-10-06T06:06:20.847Z,3.78
2022-10-06T06:08:49.693Z,3.72
2022-10-06T06:11:16.766Z,4.05
2022-10-06T06:13:43.921Z,4.22
2022-10-06T06:16:16.267Z,3.90
2022-10-06T06:18:44.230Z,3.97
2022-10-06T06:21:12.034Z,4.15
2022-10-06T06:23:40.340Z,3.75
2022-10-06T06:26:08.828Z,4.50
2022-10-06T06:28:37.387Z,3.70
2022-10-06T06:31:08.893Z,3.55
2022-10-06T06:33:37.729Z,3.80
2022-10-06T06:36:17.738Z,4.13
2022-10-06T06:38:47.753Z,3.78
2022-10-06T06:41:17.741Z,3.78
2022-10-06T06:43:45.327Z,3.90
2022-10-06T06:46:14.929Z,3.92
2022-10-06T06:48:42.638Z,3.90
2022-10-06T06:51:11.698Z,4.20
2022-10-06T06:53:39.303Z,3.78
2022-10-06T06:56:08.274Z,3.80
2022-10-06T06:58:38.651Z,4.55
2022-10-06T07:01:12.170Z,4.53
2022-10-06T07:03:56.758Z,4.63
2022-10-06T07:06:28.542Z,4.20
2022-10-06T07:08:56.682Z,4.38
2022-10-06T07:11:23.782Z,4.32
2022-10-06T07:13:54.991Z,6.18
2022-10-06T07:16:45.948Z,4.18
2022-10-06T07:19:32.400Z,3.97
2022-10-06T07:22:18.947Z,4.82
2022-10-06T07:25:04.862Z,4.47
2022-10-06T07:27:32.929Z,4.85
2022-10-06T07:30:00.072Z,4.72
2022-10-06T07:32:31.181Z,4.60
2022-10-06T07:34:58.757Z,4.30
2022-10-06T07:37:26.199Z,4.60
2022-10-06T07:39:53.312Z,4.80
2022-10-06T07:42:20.663Z,5.05
2022-10-06T07:45:08.267Z,4.28
2022-10-06T07:47:38.248Z,4.80
2022-10-06T07:50:08.982Z,4.22
2022-10-06T07:52:39.367Z,4.60
2022-10-06T07:55:06.877Z,4.90
2022-10-06T07:57:35.276Z,4.63
2022-10-06T08:00:05.378Z,4.28
2022-10-06T08:02:35.562Z,4.75
2022-10-06T08:05:03.344Z,5.13
2022-10-06T08:07:30.469Z,4.50
2022-10-06T08:09:57.578Z,5.13
2022-10-06T08:12:33.571Z,4.50
2022-10-06T08:15:07.513Z,5.15
2022-10-06T08:17:36.799Z,4.88
2022-10-06T08:20:08.207Z,4.63
2022-10-06T08:22:36.241Z,5.00
2022-10-06T08:25:08.405Z,5.72
2022-10-06T08:27:36.664Z,4.85
2022-10-06T08:30:07.422Z,5.53
2022-10-06T08:32:35.050Z,5.40
2022-10-06T08:35:02.477Z,5.93
2022-10-06T08:37:29.582Z,5.45
2022-10-06T08:39:56.912Z,5.10
2022-10-06T08:42:23.958Z,5.45
2022-10-06T08:44:55.227Z,4.88
2022-10-06T08:47:24.230Z,5.18
2022-10-06T08:49:54.066Z,4.13
2022-10-06T08:52:26.395Z,4.53
2022-10-06T08:54:53.481Z,4.57
2022-10-06T08:57:21.801Z,4.03
2022-10-06T08:59:50.143Z,4.30
2022-10-06T09:02:23.989Z,3.65
2022-10-06T09:04:51.210Z,3.85
2022-10-06T09:07:23.561Z,3.70
2022-10-06T09:09:58.462Z,3.50
2022-10-06T09:12:44.662Z,3.47
2022-10-06T09:15:30.097Z,3.30
2022-10-06T09:18:17.442Z,3.22
2022-10-06T09:20:47.356Z,3.10
2022-10-06T09:23:16.829Z,3.10
2022-10-06T09:25:44.834Z,2.85
2022-10-06T09:28:15.764Z,2.78
2022-10-06T09:30:43.482Z,2.80
2022-10-06T09:33:17.407Z,2.60
2022-10-06T09:36:06.237Z,2.90
2022-10-06T09:38:53.596Z,3.10
2022-10-06T09:41:23.450Z,2.50
2022-10-06T09:43:55.149Z,2.50
2022-10-06T09:46:29.936Z,2.45
2022-10-06T09:49:07.364Z,2.63
2022-10-06T09:51:37.569Z,2.28
2022-10-06T09:54:15.285Z,2.42
2022-10-06T09:56:43.219Z,2.88
2022-10-06T09:59:23.990Z,3.00
2022-10-06T10:01:59.650Z,2.88
2022-10-06T10:04:38.171Z,2.53
2022-10-06T10:07:15.909Z,2.60
2022-10-06T10:09:43.377Z,2.70
2022-10-06T10:12:27.606Z,2.50
2022-10-06T10:14:57.938Z,1.83
2022-10-06T10:17:33.708Z,1.95
2022-10-06T10:20:02.744Z,1.55
2022-10-06T10:22:32.947Z,1.63
2022-10-06T10:25:05.869Z,1.92
2022-10-06T10:27:32.966Z,1.83
2022-10-06T10:30:06.115Z,2.10
2022-10-06T10:32:42.162Z,2.10
2022-10-06T10:35:14.845Z,2.03
2022-10-06T10:40:15.808Z,1.50
2022-10-06T10:42:50.007Z,1.75
2022-10-06T10:45:36.463Z,1.67
2022-10-06T10:48:12.402Z,2.10
2022-10-06T10:50:58.498Z,1.80
2022-10-06T10:53:36.584Z,1.80
2022-10-06T10:56:08.374Z,1.90
2022-10-06T10:58:40.335Z,1.50
2022-10-06T11:01:10.290Z,2.00
2022-10-06T11:03:37.433Z,1.60
2022-10-06T11:06:15.386Z,1.80
2022-10-06T11:09:03.467Z,2.40
2022-10-06T11:11:54.164Z,2.00
2022-10-06T11:14:31.534Z,1.73
2022-10-06T11:17:11.802Z,1.92
2022-10-06T11:20:05.641Z,1.85
2022-10-06T11:22:45.430Z,1.58
2022-10-06T11:25:36.897Z,2.22
2022-10-06T11:28:04.303Z,1.77
2022-10-06T11:30:35.173Z,1.90
2022-10-06T11:33:13.576Z,2.20
2022-10-06T11:35:42.779Z,1.88
2022-10-06T11:38:15.631Z,1.85
2022-10-06T11:41:15.978Z,1.65
2022-10-06T11:44:03.562Z,1.80
2022-10-06T11:46:59.833Z,2.22
2022-10-06T11:49:32.007Z,2.40
2022-10-06T11:52:23.098Z,1.98
2022-10-06T11:54:57.260Z,1.92
2022-10-06T11:57:30.710Z,1.85
2022-10-06T12:00:16.719Z,1.88
2022-10-06T12:02:48.846Z,1.92
2022-10-06T12:05:54.800Z,2.00
2022-10-06T12:08:03.377Z,1.50
2022-10-06T12:10:32.087Z,1.90
2022-10-06T12:13:07.246Z,2.03
2022-10-06T12:18:38.758Z,1.63
2022-10-06T12:21:24.410Z,1.80
2022-10-06T12:23:52.946Z,1.88
2022-10-06T12:26:20.048Z,2.00
2022-10-06T12:29:05.771Z,1.77
2022-10-06T12:31:33.147Z,2.40
2022-10-06T12:34:03.445Z,2.33
2022-10-06T12:36:31.691Z,1.67
2022-10-06T12:39:07.971Z,1.90
2022-10-06T12:41:53.689Z,1.35
2022-10-06T12:44:24.032Z,5.20
2022-10-06T12:46:52.897Z,1.40
2022-10-06T12:49:32.019Z,1.98
2022-10-06T12:52:02.570Z,1.60
2022-10-06T12:54:38.994Z,2.22
2022-10-06T12:57:20.504Z,1.42
2022-10-06T12:59:49.989Z,1.42
2022-10-06T13:02:21.610Z,1.60
2022-10-06T13:04:51.780Z,2.80
2022-10-06T13:07:23.905Z,1.95
2022-10-06T13:09:54.834Z,8.15
2022-10-06T13:12:29.479Z,3.67
2022-10-06T13:15:21.087Z,4.03
2022-10-06T13:17:49.992Z,10.07
2022-10-06T13:20:26.918Z,1.67
2022-10-06T13:22:58.591Z,1.90
2022-10-06T13:25:34.934Z,1.55
2022-10-06T13:28:02.671Z,2.10
2022-10-06T13:30:32.776Z,1.67
2022-10-06T13:33:03.875Z,1.55
2022-10-06T13:35:30.968Z,1.48
2022-10-06T13:38:02.518Z,1.23
2022-10-06T13:40:44.218Z,2.35
2022-10-06T13:43:16.129Z,1.92
2022-10-06T13:45:45.388Z,1.60
2022-10-06T13:48:19.485Z,1.48
2022-10-06T13:50:47.805Z,1.35
2022-10-06T13:53:32.066Z,1.60
2022-10-06T13:56:01.242Z,1.50
2022-10-06T13:58:29.996Z,2.08
2022-10-06T14:01:00.525Z,2.00
2022-10-06T14:03:39.018Z,1.40
2022-10-06T14:06:15.656Z,2.03
2022-10-06T14:09:05.018Z,2.03
2022-10-06T14:11:36.835Z,1.33
2022-10-06T14:14:05.677Z,1.60
2022-10-06T14:16:32.890Z,2.33
2022-10-06T14:19:01.044Z,1.55
2022-10-06T14:21:28.408Z,1.77
2022-10-06T14:23:55.930Z,1.30
2022-10-06T14:26:28.045Z,1.30
2022-10-06T14:28:55.416Z,1.05
2022-10-06T14:31:25.475Z,1.50
2022-10-06T14:33:53.427Z,1.27
2022-10-06T14:36:25.679Z,1.48
2022-10-06T14:38:53.199Z,1.13
2022-10-06T14:41:27.803Z,1.10
2022-10-06T14:43:56.949Z,1.40
2022-10-06T14:46:27.635Z,1.30
2022-10-06T14:48:55.010Z,1.33
2022-10-06T14:51:24.008Z,1.40
2022-10-06T14:53:55.088Z,1.00
2022-10-06T14:56:23.239Z,1.25
2022-10-06T14:58:50.854Z,1.00
2022-10-06T15:01:18.799Z,1.45
2022-10-06T15:03:52.035Z,1.02
2022-10-06T15:06:38.831Z,1.25
2022-10-06T15:09:06.341Z,0.90
2022-10-06T15:11:34.116Z,0.93
2022-10-06T15:14:02.923Z,1.42
2022-10-06T15:16:30.593Z,1.48
2022-10-06T15:18:59.103Z,1.30
2022-10-06T15:21:27.654Z,1.80
2022-10-06T15:23:58.379Z,1.17
2022-10-06T15:26:44.620Z,1.10
2022-10-06T15:29:13.301Z,1.48
2022-10-06T15:31:41.757Z,2.08
2022-10-06T15:34:09.922Z,1.65
2022-10-06T15:36:37.974Z,1.33
2022-10-06T15:39:11.875Z,1.95
2022-10-06T15:41:40.969Z,4.20
2022-10-06T15:44:09.809Z,1.95
2022-10-06T15:46:41.502Z,1.48
2022-10-06T15:49:13.338Z,1.10
2022-10-06T15:51:52.751Z,1.40
2022-10-06T15:54:24.798Z,1.40
2022-10-06T15:57:00.365Z,1.65
2022-10-06T15:59:28.527Z,1.50
2022-10-06T16:01:57.679Z,1.20
2022-10-06T16:04:38.103Z,7.30
2022-10-06T16:07:06.993Z,1.60
2022-10-06T16:09:38.133Z,1.50
2022-10-06T16:12:08.344Z,1.77
2022-10-06T16:14:35.555Z,1.35
2022-10-06T16:17:04.094Z,1.52
2022-10-06T16:19:32.350Z,5.43
2022-10-06T16:22:01.004Z,2.53
2022-10-06T16:24:28.999Z,2.00
2022-10-06T16:26:57.971Z,1.30
2022-10-06T16:29:25.036Z,2.42
2022-10-06T16:31:53.068Z,2.33
2022-10-06T16:34:20.299Z,2.00
2022-10-06T16:36:47.449Z,2.85
2022-10-06T16:39:15.956Z,2.58
2022-10-06T16:41:43.688Z,1.60
2022-10-06T16:44:10.854Z,1.50
2022-10-06T16:46:39.190Z,2.00
2022-10-06T16:49:08.987Z,2.50
2022-10-06T16:51:37.621Z,2.40
2022-10-06T16:54:05.988Z,1.88
2022-10-06T16:56:47.769Z,2.03
2022-10-06T16:59:19.000Z,1.88
2022-10-06T17:01:49.672Z,2.60
2022-10-06T17:04:21.147Z,2.90
2022-10-06T17:06:50.194Z,4.13
2022-10-06T17:09:18.818Z,5.40
2022-10-06T17:11:47.238Z,5.28
2022-10-06T17:14:15.057Z,5.15
2022-10-06T17:16:45.289Z,4.82
2022-10-06T17:19:13.979Z,4.78
2022-10-06T17:21:46.054Z,6.93
2022-10-06T17:24:15.257Z,6.63
2022-10-06T17:26:44.905Z,7.97
2022-10-06T17:29:14.009Z,6.22
2022-10-06T17:31:43.548Z,10.00
2022-10-06T17:34:12.862Z,13.18
2022-10-06T17:36:40.441Z,11.02
2022-10-06T17:39:08.528Z,5.60
2022-10-06T17:41:36.900Z,3.65
2022-10-06T17:44:08.165Z,3.10
2022-10-06T17:46:38.038Z,3.28
2022-10-06T17:49:09.923Z,3.05
2022-10-06T17:51:37.955Z,3.60
2022-10-06T17:54:06.750Z,3.85
2022-10-06T17:56:34.931Z,4.03
2022-10-06T17:59:03.960Z,3.45
2022-10-06T18:01:34.517Z,2.58
2022-10-06T18:04:04.505Z,2.72
2022-10-06T18:06:34.069Z,2.30
2022-10-06T18:09:02.456Z,2.47
2022-10-06T18:11:38.363Z,2.17
2022-10-06T18:14:18.518Z,2.90
2022-10-06T18:16:56.784Z,2.50
2022-10-06T18:19:31.542Z,3.30
2022-10-06T18:22:00.627Z,3.13
2022-10-06T18:24:28.821Z,2.78
2022-10-06T18:26:57.038Z,2.70
2022-10-06T18:29:25.709Z,2.58
2022-10-06T18:31:53.582Z,2.10
2022-10-06T18:37:08.078Z,2.40
2022-10-06T18:39:36.453Z,2.42
2022-10-06T18:42:06.076Z,2.08
2022-10-06T18:44:51.945Z,2.15
2022-10-06T18:47:38.075Z,2.30
2022-10-06T18:50:06.098Z,2.72
2022-10-06T18:52:33.260Z,3.17
2022-10-06T18:55:00.588Z,3.00
2022-10-06T18:57:28.167Z,2.72
2022-10-06T18:59:56.577Z,3.00
2022-10-06T19:02:23.731Z,3.78
2022-10-06T19:04:52.637Z,7.30
2022-10-06T19:07:19.917Z,4.90
2022-10-06T19:09:47.515Z,4.88
2022-10-06T19:12:14.970Z,3.97
2022-10-06T19:14:50.159Z,3.88
2022-10-06T19:17:22.685Z,3.33
2022-10-06T19:19:55.268Z,2.50
2022-10-06T19:22:24.965Z,2.97
2022-10-06T19:24:52.441Z,3.25
2022-10-06T19:27:25.960Z,3.45
2022-10-06T19:30:00.881Z,3.40
2022-10-06T19:32:29.088Z,5.32
2022-10-06T19:34:59.182Z,6.15
2022-10-06T19:37:28.048Z,8.82
2022-10-06T19:39:55.161Z,8.07
2022-10-06T19:42:44.757Z,4.70
2022-10-06T19:45:16.115Z,3.95
2022-10-06T19:47:45.748Z,3.20
2022-10-06T19:50:17.035Z,3.00
2022-10-06T19:52:48.118Z,3.28
2022-10-06T19:55:29.989Z,3.33
2022-10-06T19:58:01.976Z,3.15
2022-10-06T20:00:30.459Z,3.10
2022-10-06T20:03:07.750Z,4.05
2022-10-06T20:05:37.502Z,4.60
2022-10-06T20:08:04.861Z,4.47
2022-10-06T20:10:32.813Z,3.30
2022-10-06T20:13:00.883Z,2.88
2022-10-06T20:15:27.946Z,2.67
2022-10-06T20:17:55.057Z,2.55
2022-10-06T20:20:22.223Z,2.60
2022-10-06T20:22:49.882Z,2.60
2022-10-06T20:25:17.011Z,2.90
2022-10-06T20:27:44.537Z,2.65
2022-10-06T20:30:12.159Z,2.10
2022-10-06T20:32:39.309Z,3.10
2022-10-06T20:35:06.434Z,2.67
2022-10-06T20:37:33.515Z,2.72
2022-10-06T20:40:19.641Z,2.50
2022-10-06T20:42:49.347Z,2.55
2022-10-06T20:45:16.840Z,2.55
2022-10-06T20:47:44.042Z,3.72
2022-10-06T20:50:11.276Z,5.75
2022-10-06T20:52:38.770Z,5.00
2022-10-06T20:55:06.249Z,4.10
2022-10-06T20:57:34.036Z,3.40
2022-10-06T21:00:01.193Z,2.50
2022-10-06T21:02:28.418Z,2.50
2022-10-06T21:04:57.344Z,2.45
2022-10-06T21:07:24.512Z,3.00
2022-10-06T21:09:52.399Z,2.17
2022-10-06T21:12:20.199Z,2.33
2022-10-06T21:14:47.774Z,2.17
2022-10-06T21:17:14.832Z,2.42
2022-10-06T21:19:41.902Z,2.60
2022-10-06T21:22:08.997Z,2.92
2022-10-06T21:24:36.042Z,2.75
2022-10-06T21:27:03.160Z,2.65
2022-10-06T21:29:30.213Z,2.30
2022-10-06T21:31:57.281Z,2.30
2022-10-06T21:34:24.352Z,2.65
2022-10-06T21:36:51.573Z,2.50
2022-10-06T21:39:18.652Z,2.13
2022-10-06T21:41:45.733Z,2.33
2022-10-06T21:44:13.724Z,2.20
2022-10-06T21:46:40.836Z,2.35
2022-10-06T21:49:10.845Z,2.50
2022-10-06T21:51:38.519Z,2.38
2022-10-06T21:54:05.774Z,1.80
2022-10-06T21:56:34.075Z,2.35
2022-10-06T21:59:01.550Z,2.95
2022-10-06T22:01:33.118Z,3.10
2022-10-06T22:04:00.623Z,3.53
2022-10-06T22:06:28.586Z,2.30
2022-10-06T22:08:56.050Z,2.58
2022-10-06T22:11:25.205Z,2.90
2022-10-06T22:13:54.256Z,2.67
2022-10-06T22:16:22.679Z,2.15
2022-10-06T22:18:50.054Z,2.95
2022-10-06T22:21:24.564Z,1.98
2022-10-06T22:23:56.074Z,2.65
2022-10-06T22:26:23.719Z,2.75
2022-10-06T22:28:51.789Z,2.50
2022-10-06T22:31:24.835Z,2.40
2022-10-06T22:33:56.536Z,2.47
2022-10-06T22:36:24.409Z,2.40
2022-10-06T22:38:51.821Z,2.40
2022-10-06T22:41:19.313Z,2.28
2022-10-06T22:43:46.410Z,2.38
2022-10-06T22:46:13.937Z,2.30
2022-10-06T22:48:41.728Z,2.00
2022-10-06T22:51:08.788Z,2.03
2022-10-06T22:53:35.880Z,2.22
2022-10-06T22:56:03.762Z,2.40
2022-10-06T22:58:30.864Z,2.10
2022-10-06T23:00:58.086Z,2.15
2022-10-06T23:03:25.402Z,2.00
2022-10-06T23:05:59.416Z,2.15
2022-10-06T23:08:30.171Z,2.20
2022-10-06T23:11:05.637Z,2.00
2022-10-06T23:13:32.756Z,2.50
2022-10-06T23:16:08.047Z,2.40
2022-10-06T23:18:36.245Z,1.95
2022-10-06T23:21:10.773Z,2.20
2022-10-06T23:23:38.080Z,2.15
2022-10-06T23:26:06.342Z,2.05
2022-10-06T23:28:34.081Z,2.10
2022-10-06T23:31:01.179Z,2.00
2022-10-06T23:33:31.043Z,1.85
2022-10-06T23:35:59.190Z,2.40
2022-10-06T23:38:26.488Z,2.05
2022-10-06T23:40:53.556Z,2.33
2022-10-06T23:43:21.034Z,2.42
2022-10-06T23:45:48.119Z,2.22
2022-10-06T23:48:15.646Z,1.83
2022-10-06T23:50:42.752Z,2.53
2022-10-06T23:53:09.929Z,2.10
2022-10-06T23:55:37.008Z,1.90
2022-10-06T23:58:04.074Z,2.60
